Time;durP1;ratioP1;P1;durP2;ratioP2;P2;SDS_P1;SDS_P2;PMS_P1;PMS_P2;Temp;Humidity;BMP_temperature;BMP_pressure;BME280_temperature;BME280_humidity;BME280_pressure;Samples;Min_cycle;Max_cycle;Signal;HPM_P1;HPM_P2
2022/10/16 04:22:50;;;;;;;3.40;1.98;;;;;;;14.29;100.00;100066.41;5163203;27;20349;-62
2022/10/16 04:25:15;;;;;;;2.40;1.33;;;;;;;14.30;100.00;100070.72;5129759;28;20115;-65
2022/10/16 04:27:41;;;;;;;2.45;1.48;;;;;;;14.32;100.00;100075.88;5129936;27;20065;-64
2022/10/16 04:30:07;;;;;;;2.75;1.80;;;;;;;14.34;100.00;100081.84;5129656;27;20488;-65
2022/10/16 04:32:32;;;;;;;1.92;1.17;;;;;;;14.36;100.00;100095.88;5130221;27;20062;-64
2022/10/16 04:34:58;;;;;;;3.05;1.88;;;;;;;14.43;100.00;100093.22;5129494;27;20039;-64
2022/10/16 04:37:25;;;;;;;2.03;1.40;;;;;;;14.43;100.00;100094.06;5129622;27;20043;-64
2022/10/16 04:39:50;;;;;;;2.47;1.48;;;;;;;14.40;100.00;100099.81;5129722;27;20041;-65
2022/10/16 04:42:16;;;;;;;2.40;1.30;;;;;;;14.35;100.00;100104.97;5129336;27;20043;-64
2022/10/16 04:44:41;;;;;;;2.80;1.35;;;;;;;14.34;100.00;100104.13;5129503;27;20032;-64
2022/10/16 04:47:07;;;;;;;2.33;1.25;;;;;;;14.34;100.00;100105.97;5129411;27;20044;-62
2022/10/16 04:49:32;;;;;;;2.50;1.20;;;;;;;14.32;100.00;100092.78;5129614;27;20046;-64
2022/10/16 04:51:58;;;;;;;3.83;1.15;;;;;;;14.38;100.00;100107.22;5129011;27;20039;-64
2022/10/16 04:54:23;;;;;;;1.30;1.05;;;;;;;14.35;100.00;100096.91;5129462;27;20039;-65
2022/10/16 04:56:50;;;;;;;1.30;1.00;;;;;;;14.38;100.00;100091.97;5129247;27;20036;-64
2022/10/16 04:59:17;;;;;;;1.45;0.93;;;;;;;14.36;100.00;100099.41;5129165;27;20039;-65
2022/10/16 05:01:43;;;;;;;8.18;1.40;;;;;;;14.36;100.00;100112.78;5129150;27;20437;-65
2022/10/16 05:04:08;;;;;;;1.67;1.08;;;;;;;14.36;100.00;100111.97;5129197;27;20038;-64
2022/10/16 05:06:34;;;;;;;4.78;1.20;;;;;;;14.40;100.00;100100.63;5129109;27;20492;-64
2022/10/16 05:08:59;;;;;;;1.10;1.00;;;;;;;14.36;100.00;100110.09;5129106;27;20084;-64
2022/10/16 05:11:25;;;;;;;2.05;1.17;;;;;;;14.38;100.00;100113.41;5128527;27;20062;-65
2022/10/16 05:13:50;;;;;;;0.98;0.90;;;;;;;14.32;100.00;100114.22;5128933;27;20036;-64
2022/10/16 05:16:16;;;;;;;1.48;0.90;;;;;;;14.33;100.00;100099.78;5129031;27;20070;-64
2022/10/16 05:18:41;;;;;;;1.40;1.13;;;;;;;14.35;100.00;100105.78;5128899;27;20043;-63
2022/10/16 05:21:07;;;;;;;1.77;1.30;;;;;;;14.32;100.00;100108.03;5128425;27;20063;-65
2022/10/16 05:23:33;;;;;;;5.07;1.33;;;;;;;14.33;100.00;100115.84;5128790;27;20042;-64
2022/10/16 05:25:59;;;;;;;3.45;1.27;;;;;;;14.27;100.00;100113.97;5128666;27;20395;-65
2022/10/16 05:28:26;;;;;;;1.15;1.00;;;;;;;14.25;100.00;100112.53;5128626;27;20119;-64
2022/10/16 05:30:52;;;;;;;1.48;1.10;;;;;;;14.29;100.00;100119.97;5128363;27;20040;-65
2022/10/16 05:33:20;;;;;;;4.25;0.98;;;;;;;14.29;100.00;100119.16;5120930;27;20054;-65
2022/10/16 05:35:46;;;;;;;4.13;1.15;;;;;;;14.27;100.00;100115.81;5115023;28;20484;-66
2022/10/16 05:38:11;;;;;;;1.58;1.05;;;;;;;14.27;100.00;100116.66;5114760;28;20039;-65
2022/10/16 05:40:37;;;;;;;2.42;1.52;;;;;;;14.28;100.00;100120.16;5114471;28;20051;-65
2022/10/16 05:43:02;;;;;;;1.40;1.13;;;;;;;14.29;100.00;100129.88;5114645;28;20089;-65
2022/10/16 05:45:28;;;;;;;1.67;1.00;;;;;;;14.29;100.00;100133.38;5114632;28;20454;-65
2022/10/16 05:47:53;;;;;;;1.83;0.90;;;;;;;14.30;100.00;100131.53;5114870;28;20062;-65
2022/10/16 05:50:18;;;;;;;3.15;1.55;;;;;;;14.32;100.00;100145.53;5114389;27;20039;-65
2022/10/16 05:52:44;;;;;;;0.70;0.65;;;;;;;14.31;100.00;100141.22;5114493;27;20389;-66
2022/10/16 05:55:09;;;;;;;2.75;0.88;;;;;;;14.35;100.00;100123.72;5114538;27;20066;-66
2022/10/16 05:57:34;;;;;;;1.60;1.10;;;;;;;14.35;100.00;100118.34;5114395;28;20084;-63
2022/10/16 06:00:00;;;;;;;6.57;0.90;;;;;;;14.31;100.00;100123.28;5114229;28;20118;-64
2022/10/16 06:02:25;;;;;;;2.10;1.05;;;;;;;14.33;100.00;100126.56;5114233;28;20472;-62
2022/10/16 06:04:53;;;;;;;5.35;1.17;;;;;;;14.23;100.00;100117.28;5114331;28;20404;-64
2022/10/16 06:07:18;;;;;;;;;;;;;;;14.31;100.00;100127.81;5114587;28;20075;-64
2022/10/16 06:09:44;;;;;;;1.23;1.08;;;;;;;14.27;100.00;100127.38;5114242;28;19971;-62
2022/10/16 06:12:09;;;;;;;4.93;1.50;;;;;;;14.24;100.00;100133.16;5113786;28;20043;-63
2022/10/16 06:14:34;;;;;;;4.05;1.85;;;;;;;14.26;100.00;100147.16;5114170;28;20084;-62
2022/10/16 06:17:00;;;;;;;3.28;1.30;;;;;;;14.24;100.00;100151.91;5114103;28;20119;-63
2022/10/16 06:19:25;;;;;;;4.60;2.92;;;;;;;14.25;100.00;100148.19;5114172;28;20043;-63
2022/10/16 06:21:51;;;;;;;3.97;2.22;;;;;;;14.29;100.00;100132.56;5113596;28;20035;-64
2022/10/16 06:24:16;;;;;;;2.03;1.15;;;;;;;14.30;100.00;100134.19;5114017;28;20031;-62
2022/10/16 06:26:41;;;;;;;6.15;2.83;;;;;;;14.33;100.00;100137.28;5113851;28;20043;-63
2022/10/16 06:29:08;;;;;;;4.13;1.52;;;;;;;14.31;100.00;100138.53;5112556;28;20047;-64
2022/10/16 06:31:33;;;;;;;6.38;2.47;;;;;;;14.36;100.00;100149.47;5113296;28;20044;-62
2022/10/16 06:33:59;;;;;;;1.90;1.35;;;;;;;14.36;100.00;100152.16;5113696;28;20040;-62
2022/10/16 06:36:25;;;;;;;2.85;1.80;;;;;;;14.39;100.00;100163.28;5113642;28;20046;-63
2022/10/16 06:38:51;;;;;;;2.40;1.73;;;;;;;14.42;100.00;100162.06;5113646;27;20039;-64
2022/10/16 06:41:18;;;;;;;1.60;1.20;;;;;;;14.45;100.00;100166.19;5113106;28;20042;-63
2022/10/16 06:43:45;;;;;;;;;;;;;;;14.47;100.00;100167.66;5113959;28;20385;-63
2022/10/16 06:46:12;;;;;;;1.48;1.00;;;;;;;14.49;100.00;100162.13;5112679;28;20014;-63
2022/10/16 06:48:38;;;;;;;2.85;1.17;;;;;;;14.50;100.00;100169.97;5113552;28;20043;-63
2022/10/16 06:51:11;;;;;;;1.52;1.00;;;;;;;14.51;100.00;100160.06;5112950;28;20036;-63
2022/10/16 06:53:40;;;;;;;1.63;0.80;;;;;;;14.50;100.00;100153.88;5113095;28;20046;-63
2022/10/16 06:56:18;;;;;;;1.83;1.08;;;;;;;14.51;100.00;100163.56;5113261;28;20039;-65
2022/10/16 06:58:44;;;;;;;2.03;1.27;;;;;;;14.46;100.00;100163.34;5113264;28;20088;-66
2022/10/16 07:01:11;;;;;;;1.42;1.00;;;;;;;14.48;100.00;100160.50;5112999;28;20067;-68
2022/10/16 07:03:38;;;;;;;1.30;0.93;;;;;;;14.54;100.00;100163.19;5113246;28;20023;-66
2022/10/16 07:06:05;;;;;;;1.30;1.05;;;;;;;14.54;100.00;100165.00;5113212;28;20046;-68
2022/10/16 07:08:35;;;;;;;3.28;1.13;;;;;;;14.56;100.00;100168.34;5113280;28;20084;-67
2022/10/16 07:11:03;;;;;;;1.30;1.08;;;;;;;14.64;100.00;100162.78;5106597;28;20435;-67
2022/10/16 07:13:28;;;;;;;1.27;1.05;;;;;;;14.72;100.00;100162.59;5113263;28;20060;-66
2022/10/16 07:15:54;;;;;;;2.78;0.60;;;;;;;14.79;100.00;100168.81;5112608;28;20047;-66
2022/10/16 07:18:19;;;;;;;1.85;1.15;;;;;;;14.86;100.00;100180.38;5112904;28;20120;-67
2022/10/16 07:20:45;;;;;;;2.15;1.13;;;;;;;14.93;100.00;100189.28;5111581;28;20035;-67
2022/10/16 07:23:10;;;;;;;3.40;1.30;;;;;;;15.00;100.00;100191.16;5112876;28;20038;-66
2022/10/16 07:25:35;;;;;;;1.05;0.85;;;;;;;15.07;100.00;100186.63;5112478;28;20462;-67
2022/10/16 07:28:01;;;;;;;1.52;1.20;;;;;;;15.11;100.00;100187.84;5112925;28;20492;-67
2022/10/16 07:30:29;;;;;;;1.63;1.30;;;;;;;15.21;100.00;100199.03;5112193;28;20035;-66
2022/10/16 07:32:54;;;;;;;1.08;0.98;;;;;;;15.28;100.00;100209.78;5112700;28;20087;-66
2022/10/16 07:35:19;;;;;;;7.82;4.60;;;;;;;15.34;100.00;100212.47;5112360;28;20525;-67
2022/10/16 07:37:46;;;;;;;3.13;2.10;;;;;;;15.39;100.00;100201.13;5112589;28;20035;-67
2022/10/16 07:40:11;;;;;;;1.50;1.20;;;;;;;15.45;100.00;100211.88;5111619;28;20532;-68
2022/10/16 07:42:37;;;;;;;3.10;1.70;;;;;;;15.50;100.00;100205.03;5112505;28;20039;-66
2022/10/16 07:45:02;;;;;;;1.65;1.00;;;;;;;15.56;100.00;100213.09;5112435;28;20438;-66
2022/10/16 07:47:28;;;;;;;3.97;1.00;;;;;;;15.62;100.00;100223.03;5112259;28;20042;-66
2022/10/16 07:49:53;;;;;;;1.33;0.90;;;;;;;15.70;100.00;100230.03;5111933;28;20039;-67
2022/10/16 07:52:19;;;;;;;1.40;1.08;;;;;;;15.73;100.00;100241.22;5111354;28;20040;-66
2022/10/16 07:54:44;;;;;;;3.08;1.67;;;;;;;15.79;100.00;100239.56;5112359;28;20046;-67
2022/10/16 07:57:09;;;;;;;1.38;1.00;;;;;;;15.82;100.00;100233.75;5111888;28;20078;-67
2022/10/16 07:59:35;;;;;;;1.40;1.13;;;;;;;15.88;100.00;100245.53;5111928;28;20142;-67
2022/10/16 08:02:00;;;;;;;2.40;1.58;;;;;;;15.91;100.00;100248.66;5111322;28;20100;-67
2022/10/16 08:04:26;;;;;;;1.60;1.02;;;;;;;15.95;100.00;100246.34;5112175;28;20044;-68
2022/10/16 08:06:51;;;;;;;1.30;1.20;;;;;;;16.00;100.00;100244.69;5112050;28;20085;-67
2022/10/16 08:09:16;;;;;;;2.05;1.42;;;;;;;16.05;100.00;100241.41;5112053;28;20035;-67
2022/10/16 08:11:42;;;;;;;4.03;2.53;;;;;;;16.13;100.00;100243.03;5111065;28;20071;-66
2022/10/16 08:14:08;;;;;;;3.97;1.98;;;;;;;16.23;100.00;100240.72;5111976;28;20043;-67
2022/10/16 08:16:33;;;;;;;3.35;1.60;;;;;;;16.31;100.00;100232.47;5111900;28;20611;-66
2022/10/16 08:18:58;;;;;;;1.77;1.42;;;;;;;16.39;100.00;100232.22;5112137;28;20110;-71
2022/10/16 08:21:24;;;;;;;1.45;1.15;;;;;;;16.46;100.00;100235.72;5111571;28;20507;-66
2022/10/16 08:23:50;;;;;;;1.70;1.10;;;;;;;16.49;100.00;100229.06;5111978;28;20039;-65
2022/10/16 08:26:16;;;;;;;2.13;1.33;;;;;;;16.55;100.00;100234.44;5110644;28;20031;-65
2022/10/16 08:28:41;;;;;;;2.53;1.50;;;;;;;16.62;100.00;100238.97;5112010;28;20044;-65
2022/10/16 08:31:15;;;;;;;2.30;1.38;;;;;;;16.63;100.00;100240.63;5111504;28;20039;-66
2022/10/16 08:33:42;;;;;;;1.58;1.17;;;;;;;16.67;100.00;100241.84;5111767;28;20040;-66
2022/10/16 08:36:09;;;;;;;2.75;1.15;;;;;;;16.67;100.00;100252.59;5110664;28;20031;-66
2022/10/16 08:38:35;;;;;;;1.20;1.10;;;;;;;16.76;100.00;100262.13;5111858;28;20504;-66
2022/10/16 08:41:09;;;;;;;1.52;1.20;;;;;;;16.84;100.00;100269.13;5111533;28;20027;-67
2022/10/16 08:44:08;;;;;;;1.30;1.20;;;;;;;16.95;100.00;100271.13;5111789;28;20131;-66
2022/10/16 08:46:49;;;;;;;1.05;0.88;;;;;;;17.06;100.00;100273.16;5110517;28;20403;-66
2022/10/16 08:49:15;;;;;;;0.88;0.80;;;;;;;17.14;100.00;100283.66;5111849;28;20031;-68
2022/10/16 08:51:41;;;;;;;2.00;0.90;;;;;;;17.28;100.00;100284.44;5111389;28;20119;-66
2022/10/16 08:54:29;;;;;;;1.52;1.00;;;;;;;17.39;100.00;100286.41;5111665;28;20042;-70
2022/10/16 08:56:55;;;;;;;;;;;;;;;17.51;100.00;100292.75;5112103;28;20031;-69
2022/10/16 08:59:20;;;;;;;1.50;1.20;;;;;;;17.61;100.00;100293.13;5111739;28;20349;-68
2022/10/16 09:01:49;;;;;;;1.35;1.20;;;;;;;17.73;100.00;100298.63;5111305;28;20028;-68
2022/10/16 09:04:42;;;;;;;2.53;1.05;;;;;;;17.90;100.00;100307.03;5111810;28;20038;-68
2022/10/16 09:07:24;;;;;;;2.55;0.80;;;;;;;17.99;100.00;100305.69;5111474;28;20032;-68
2022/10/16 09:10:00;;;;;;;1.42;0.98;;;;;;;18.17;100.00;100310.31;5115821;28;20392;-68
2022/10/16 09:12:55;;;;;;;3.42;1.30;;;;;;;18.32;100.00;100315.34;5115333;28;20058;-69
2022/10/16 09:15:34;;;;;;;1.60;1.10;;;;;;;18.49;100.00;100316.44;5112054;28;20036;-69
2022/10/16 09:18:05;;;;;;;2.22;1.45;;;;;;;18.42;100.00;100315.66;5115411;28;20035;-68
2022/10/16 09:20:40;;;;;;;1.27;1.00;;;;;;;18.47;100.00;100317.72;5114951;28;20038;-68
2022/10/16 09:23:14;;;;;;;1.33;0.90;;;;;;;18.48;100.00;100330.16;5115262;28;20040;-68
2022/10/16 09:25:45;;;;;;;5.53;1.27;;;;;;;18.54;100.00;100332.78;5115116;28;20051;-67
2022/10/16 09:28:11;;;;;;;1.48;0.98;;;;;;;18.50;100.00;100334.25;5115029;28;20502;-68
2022/10/16 09:30:37;;;;;;;1.48;1.10;;;;;;;18.54;100.00;100332.78;5114836;28;20024;-68
2022/10/16 09:33:04;;;;;;;1.33;1.00;;;;;;;18.53;100.00;100338.41;5115045;27;20088;-66
2022/10/16 09:35:37;;;;;;;2.08;1.40;;;;;;;18.52;100.00;100342.97;5114890;28;20400;-67
2022/10/16 09:38:03;;;;;;;2.28;1.10;;;;;;;18.53;100.00;100347.31;5114921;28;20035;-67
2022/10/16 09:40:32;;;;;;;2.28;1.10;;;;;;;18.59;100.00;100345.59;5114619;27;20383;-72
2022/10/16 09:43:20;;;;;;;2.17;1.75;;;;;;;18.63;100.00;100350.31;5114914;28;20053;-68
2022/10/16 09:46:05;;;;;;;1.40;1.17;;;;;;;18.75;100.00;100352.31;5114772;28;20038;-68
2022/10/16 09:48:43;;;;;;;3.47;0.90;;;;;;;18.91;100.00;100351.72;5114749;28;20060;-68
2022/10/16 09:51:21;;;;;;;0.98;0.80;;;;;;;19.07;100.00;100351.09;5112925;28;20455;-69
2022/10/16 09:53:47;;;;;;;1.65;1.20;;;;;;;19.19;100.00;100345.75;5114681;28;20039;-68
2022/10/16 09:56:23;;;;;;;1.00;0.88;;;;;;;19.22;100.00;100348.81;5114746;28;20035;-68
2022/10/16 09:59:01;;;;;;;3.88;0.90;;;;;;;19.44;99.78;100361.84;5114795;28;20035;-68
2022/10/16 10:01:38;;;;;;;0.82;0.75;;;;;;;19.59;100.00;100367.69;5114321;28;20035;-67
2022/10/16 10:04:04;;;;;;;5.18;0.88;;;;;;;19.67;97.39;100372.75;5114848;28;20515;-52
2022/10/16 10:06:33;;;;;;;1.05;0.93;;;;;;;19.83;100.00;100376.72;5114435;28;20487;-48
2022/10/16 10:09:29;;;;;;;1.27;0.90;;;;;;;19.94;99.52;100380.47;5114425;28;20426;-48
2022/10/16 10:11:56;;;;;;;1.20;0.85;;;;;;;20.11;96.13;100380.66;5113924;28;20035;-68
2022/10/16 10:14:37;;;;;;;1.05;0.70;;;;;;;20.05;98.89;100375.09;5114351;28;20395;-69
2022/10/16 10:17:05;;;;;;;1.75;1.00;;;;;;;20.17;94.18;100380.53;5114172;28;20085;-70
2022/10/16 10:19:48;;;;;;;1.23;1.00;;;;;;;20.59;94.24;100373.16;5114175;28;20058;-69
2022/10/16 10:22:24;;;;;;;3.58;0.82;;;;;;;20.74;91.31;100377.31;5113787;28;20039;-69
2022/10/16 10:25:01;;;;;;;1.35;0.88;;;;;;;20.99;93.03;100379.72;5112962;28;20042;-69
2022/10/16 10:27:37;;;;;;;1.25;1.00;;;;;;;21.62;86.96;100376.13;5114146;28;20571;-69
2022/10/16 10:30:24;;;;;;;0.93;0.80;;;;;;;21.73;81.68;100372.56;5113988;28;20159;-70
2022/10/16 10:33:09;;;;;;;2.80;1.15;;;;;;;22.98;79.74;100379.44;5114246;27;20044;-69
2022/10/16 10:35:56;;;;;;;0.93;0.90;;;;;;;23.94;75.38;100373.47;5113884;28;20420;-68
2022/10/16 10:38:35;;;;;;;1.73;0.90;;;;;;;24.94;70.42;100372.81;5112613;28;20031;-68
2022/10/16 10:41:15;;;;;;;0.77;0.70;;;;;;;25.77;68.57;100360.06;5113412;28;20087;-68
2022/10/16 10:43:52;;;;;;;1.02;0.68;;;;;;;26.17;64.03;100363.91;5113760;28;20032;-68
2022/10/16 10:46:41;;;;;;;;;;;;;;;25.84;63.51;100357.06;5114109;28;20070;-69
2022/10/16 10:49:36;;;;;;;1.25;0.77;;;;;;;26.13;61.85;100355.44;5110342;28;19912;-69
2022/10/16 10:52:07;;;;;;;0.93;0.80;;;;;;;26.52;61.10;100363.06;5113103;28;20048;-69
2022/10/16 10:54:54;;;;;;;0.93;0.70;;;;;;;25.70;66.20;100370.41;5113564;28;20074;-69
2022/10/16 10:57:25;;;;;;;1.25;0.82;;;;;;;25.43;66.22;100368.69;5113519;28;20042;-68
2022/10/16 11:00:10;;;;;;;1.50;0.95;;;;;;;24.47;68.39;100374.47;5113180;28;20084;-68
2022/10/16 11:02:41;;;;;;;2.60;0.95;;;;;;;24.47;70.40;100374.47;5113229;28;20027;-69
2022/10/16 11:05:38;;;;;;;1.15;0.90;;;;;;;23.98;74.46;100371.88;5113125;28;20480;-69
2022/10/16 11:08:23;;;;;;;1.70;1.10;;;;;;;23.45;76.08;100364.50;5113167;28;20040;-68
2022/10/16 11:10:52;;;;;;;4.22;1.17;;;;;;;23.02;78.04;100372.44;5111956;28;20045;-68
2022/10/16 11:13:38;;;;;;;1.63;1.00;;;;;;;23.15;78.62;100365.00;5112860;28;20450;-68
2022/10/16 11:16:22;;;;;;;2.65;1.00;;;;;;;23.01;82.09;100362.63;5112957;28;20531;-69
2022/10/16 11:18:48;;;;;;;5.90;1.80;;;;;;;23.21;81.46;100372.97;5112773;28;20040;-69
2022/10/16 11:21:18;;;;;;;1.70;1.23;;;;;;;23.08;80.91;100361.63;5112409;28;20046;-68
2022/10/16 11:23:49;;;;;;;2.22;1.48;;;;;;;23.25;79.47;100357.78;5112871;28;20084;-69
2022/10/16 11:26:20;;;;;;;1.52;1.13;;;;;;;23.36;75.45;100350.56;5112764;28;20035;-69
2022/10/16 11:28:49;;;;;;;1.42;0.90;;;;;;;23.36;78.43;100353.28;5112767;28;20420;-69
2022/10/16 11:31:37;;;;;;;3.28;1.10;;;;;;;23.38;73.33;100348.41;5111794;28;20114;-69
2022/10/16 11:34:03;;;;;;;1.63;0.90;;;;;;;23.36;75.27;100344.31;5111257;28;20508;-69
2022/10/16 11:36:51;;;;;;;1.40;0.80;;;;;;;23.56;69.80;100349.97;5112657;28;20046;-69
2022/10/16 11:39:27;;;;;;;1.73;0.93;;;;;;;23.51;72.70;100348.00;5112585;28;20035;-59
2022/10/16 11:41:58;;;;;;;2.38;0.85;;;;;;;23.58;69.71;100347.78;5112436;28;20380;-59
2022/10/16 11:44:54;;;;;;;1.15;0.85;;;;;;;23.50;71.09;100338.22;5112556;27;20103;-61
2022/10/16 11:47:38;;;;;;;1.27;0.90;;;;;;;23.30;68.93;100335.28;5112407;28;20042;-58
2022/10/16 11:50:18;;;;;;;1.08;0.90;;;;;;;23.17;69.76;100335.69;5112338;28;20062;-59
2022/10/16 11:52:55;;;;;;;1.63;1.02;;;;;;;23.36;70.52;100336.16;5112517;28;20392;-58
2022/10/16 11:55:42;;;;;;;1.77;1.00;;;;;;;23.45;68.63;100338.16;5112314;28;20045;-60
2022/10/16 11:58:15;;;;;;;1.75;1.23;;;;;;;23.69;67.41;100340.59;5110788;28;20039;-60
2022/10/16 12:00:50;;;;;;;2.20;0.80;;;;;;;24.33;65.34;100340.59;5111979;28;20035;-58
2022/10/16 12:03:39;;;;;;;0.70;0.70;;;;;;;24.51;61.20;100344.81;5112206;28;20040;-59
2022/10/16 12:06:34;;;;;;;0.65;0.60;;;;;;;24.25;64.52;100347.31;5112055;28;20088;-58
2022/10/16 12:09:01;;;;;;;1.20;0.85;;;;;;;24.17;64.39;100341.53;5112401;28;20042;-57
2022/10/16 12:11:26;;;;;;;1.80;1.10;;;;;;;24.09;66.82;100345.56;5111983;28;20693;-60
2022/10/16 12:13:52;;;;;;;2.50;0.70;;;;;;;23.62;66.51;100338.09;5112068;28;20106;-60
2022/10/16 12:16:21;;;;;;;1.27;1.00;;;;;;;23.49;66.17;100342.00;5112072;28;20051;-60
2022/10/16 12:18:48;;;;;;;1.00;0.70;;;;;;;23.36;70.36;100342.41;5111974;28;20042;-60
2022/10/16 12:21:15;;;;;;;1.05;0.90;;;;;;;23.01;70.39;100340.91;5111696;28;20047;-60
2022/10/16 12:23:51;;;;;;;1.75;0.95;;;;;;;22.97;71.99;100336.25;5110717;28;20039;-58
2022/10/16 12:26:28;;;;;;;1.98;0.80;;;;;;;22.83;73.39;100333.06;5111932;28;20118;-56
2022/10/16 12:28:55;;;;;;;1.47;1.13;;;;;;;22.66;72.18;100329.56;5111912;28;20070;-55
2022/10/16 12:31:21;;;;;;;1.40;0.98;;;;;;;22.63;72.69;100327.38;5110309;28;20031;-60
2022/10/16 12:33:59;;;;;;;0.80;0.73;;;;;;;22.48;73.00;100328.78;5111880;28;20396;-58
2022/10/16 12:36:30;;;;;;;2.42;1.08;;;;;;;22.54;73.42;100323.41;5111845;28;20038;-60
2022/10/16 12:38:56;;;;;;;1.95;1.17;;;;;;;22.60;75.33;100336.81;5111924;28;20080;-52
2022/10/16 12:41:31;;;;;;;1.75;1.05;;;;;;;22.74;76.99;100331.84;5111623;28;20019;-59
2022/10/16 12:43:57;;;;;;;22.08;12.85;;;;;;;22.78;77.78;100324.84;5114657;28;20434;-59
2022/10/16 12:46:28;;;;;;;205.57;109.18;;;;;;;22.65;78.43;100327.94;5115962;28;20036;-57
2022/10/16 12:49:25;;;;;;;28.25;16.45;;;;;;;22.70;78.89;100314.44;5115878;28;20039;-59
2022/10/16 12:51:50;;;;;;;50.00;27.75;;;;;;;22.78;77.94;100333.00;5111277;28;20039;-58
2022/10/16 12:54:41;;;;;;;31.27;18.55;;;;;;;22.89;77.00;100333.97;5115794;28;20381;-59
2022/10/16 12:57:18;;;;;;;24.77;13.65;;;;;;;23.01;77.33;100334.66;5112939;28;20048;-60
2022/10/16 13:00:12;;;;;;;9.45;5.50;;;;;;;22.97;77.23;100334.34;5115804;28;20047;-61
2022/10/16 13:02:59;;;;;;;11.73;7.30;;;;;;;22.85;77.58;100332.81;5115605;28;20023;-56
2022/10/16 13:05:27;;;;;;;7.18;3.83;;;;;;;22.79;77.38;100331.91;5115679;28;20035;-53
2022/10/16 13:07:58;;;;;;;6.15;2.85;;;;;;;22.56;77.97;100342.97;5115799;28;20103;-55
2022/10/16 13:10:50;;;;;;;2.58;1.48;;;;;;;22.56;77.40;100346.53;5115228;28;20074;-54
2022/10/16 13:13:34;;;;;;;1.67;1.10;;;;;;;22.32;79.08;100337.78;5115436;28;20028;-55
2022/10/16 13:16:20;;;;;;;5.15;1.67;;;;;;;22.28;79.46;100333.91;5115275;28;20050;-57
2022/10/16 13:18:57;;;;;;;1.85;1.10;;;;;;;22.18;79.09;100339.19;5115385;28;20445;-56
2022/10/16 13:21:41;;;;;;;;;;;;;;;22.13;79.96;100344.53;5115372;28;20406;-53
2022/10/16 13:24:33;;;;;;;1.35;1.02;;;;;;;21.92;79.58;100344.16;5115197;28;19911;-53
2022/10/16 13:27:26;;;;;;;2.13;1.13;;;;;;;21.93;79.77;100334.94;5115014;27;20031;-53
2022/10/16 13:30:21;;;;;;;3.15;1.50;;;;;;;21.93;78.29;100334.94;5116845;28;20032;-52
2022/10/16 13:32:49;;;;;;;1.30;1.10;;;;;;;21.93;77.15;100331.41;5116639;28;20044;-57
2022/10/16 13:35:33;;;;;;;1.58;1.10;;;;;;;21.82;77.56;100333.13;5115671;28;20111;-57
2022/10/16 13:38:13;;;;;;;4.88;3.10;;;;;;;21.82;81.29;100332.31;5114902;28;20141;-57
2022/10/16 13:40:54;;;;;;;3.47;2.50;;;;;;;21.80;79.26;100342.59;5114799;28;20032;-57
2022/10/16 13:43:27;;;;;;;3.35;1.77;;;;;;;21.74;80.27;100330.00;5115038;28;20036;-60
2022/10/16 13:46:04;;;;;;;2.13;1.13;;;;;;;21.70;78.94;100329.66;5114733;28;20415;-58
2022/10/16 13:48:30;;;;;;;1.58;1.05;;;;;;;21.57;80.41;100332.69;5114778;28;20035;-56
2022/10/16 13:50:59;;;;;;;5.77;1.50;;;;;;;21.56;81.72;100326.44;5114339;28;20400;-67
2022/10/16 13:53:25;;;;;;;1.60;1.30;;;;;;;21.53;82.75;100334.25;5113966;28;20288;-68
2022/10/16 13:55:50;;;;;;;3.65;1.60;;;;;;;21.44;84.04;100333.78;5114321;28;20043;-68
2022/10/16 13:58:15;;;;;;;4.40;3.40;;;;;;;21.42;84.18;100335.13;5114353;28;20046;-67
2022/10/16 14:00:57;;;;;;;2.70;1.77;;;;;;;21.35;85.27;100327.94;5114142;28;20066;-68
2022/10/16 14:03:22;;;;;;;4.25;2.95;;;;;;;21.22;86.01;100335.50;5114336;27;20481;-68
2022/10/16 14:05:51;;;;;;;6.20;3.45;;;;;;;21.12;88.54;100336.13;5114241;28;20039;-68
2022/10/16 14:08:17;;;;;;;3.20;2.58;;;;;;;21.12;88.92;100333.41;5114355;28;20087;-68
2022/10/16 14:10:48;;;;;;;2.25;1.90;;;;;;;21.10;88.75;100332.84;5113920;28;20560;-67
2022/10/16 14:13:18;;;;;;;4.05;1.30;;;;;;;21.03;88.26;100338.38;5114158;28;20043;-67
2022/10/16 14:15:48;;;;;;;0.95;0.80;;;;;;;21.01;90.21;100328.88;5114301;28;20507;-68
2022/10/16 14:18:20;;;;;;;1.63;1.13;;;;;;;21.06;91.63;100332.50;5114057;28;20392;-68
2022/10/16 14:20:45;;;;;;;2.58;1.20;;;;;;;21.11;93.89;100335.31;5113630;28;20126;-68
2022/10/16 14:23:30;;;;;;;5.82;3.40;;;;;;;21.17;96.54;100335.41;5113977;28;20160;-68
2022/10/16 14:26:13;;;;;;;4.70;2.95;;;;;;;21.25;93.03;100330.41;5113765;28;20059;-68
2022/10/16 14:28:40;;;;;;;3.40;1.50;;;;;;;21.39;90.35;100334.53;5113741;28;20110;-68
2022/10/16 14:31:33;;;;;;;2.47;1.67;;;;;;;21.50;88.55;100324.69;5113452;28;20495;-68
2022/10/16 14:33:59;;;;;;;2.72;2.53;;;;;;;21.60;87.52;100322.19;5113701;28;20044;-68
2022/10/16 14:36:26;;;;;;;4.00;3.60;;;;;;;21.62;86.82;100322.75;5113578;28;20035;-68
2022/10/16 14:39:01;;;;;;;;;;;;;;;21.67;87.33;100335.59;5114166;28;20511;-68
2022/10/16 14:41:29;;;;;;;3.45;3.00;;;;;;;21.66;86.19;100328.53;5113383;28;19919;-68
2022/10/16 14:44:00;;;;;;;2.92;1.85;;;;;;;21.71;86.31;100334.00;5113546;28;20042;-68
2022/10/16 14:46:33;;;;;;;4.00;1.48;;;;;;;21.72;84.95;100330.25;5113499;28;20539;-67
2022/10/16 14:49:10;;;;;;;3.28;1.60;;;;;;;21.76;85.86;100331.41;5113343;28;20044;-68
2022/10/16 14:51:44;;;;;;;1.13;0.90;;;;;;;21.81;84.98;100328.78;5113137;28;20035;-68
2022/10/16 14:54:10;;;;;;;2.38;1.33;;;;;;;21.84;84.57;100324.75;5113264;28;20040;-68
2022/10/16 14:56:47;;;;;;;1.63;1.08;;;;;;;21.86;83.57;100320.72;5113179;28;20043;-69
2022/10/16 14:59:19;;;;;;;1.23;0.88;;;;;;;21.84;82.78;100325.59;5113220;28;20036;-68
2022/10/16 15:01:45;;;;;;;2.60;1.35;;;;;;;21.77;81.54;100329.50;5112892;28;20028;-68
2022/10/16 15:04:12;;;;;;;1.13;1.00;;;;;;;21.71;82.59;100319.63;5113072;28;20065;-67
2022/10/16 15:06:38;;;;;;;1.38;1.13;;;;;;;21.71;83.75;100331.28;5112377;28;20077;-69
2022/10/16 15:09:03;;;;;;;1.15;1.05;;;;;;;21.67;83.46;100327.44;5112939;28;20071;-68
2022/10/16 15:11:31;;;;;;;2.10;1.58;;;;;;;21.64;84.11;100327.91;5112551;28;20040;-68
2022/10/16 15:13:56;;;;;;;;;;;;;;;21.60;84.17;100333.03;5111940;28;20050;-69
2022/10/16 15:16:21;;;;;;;2.00;1.50;;;;;;;21.59;85.04;100325.16;5112817;28;19998;-68
2022/10/16 15:18:47;;;;;;;1.42;1.33;;;;;;;21.54;85.65;100333.19;5113074;28;20108;-69
2022/10/16 15:21:26;;;;;;;2.42;1.77;;;;;;;21.52;86.60;100330.72;5112194;28;20036;-68
2022/10/16 15:23:51;;;;;;;2.22;1.48;;;;;;;21.51;86.28;100330.94;5112721;28;20031;-68
2022/10/16 15:26:17;;;;;;;2.40;1.73;;;;;;;21.44;87.28;100327.56;5112448;28;20048;-68
2022/10/16 15:28:43;;;;;;;1.50;1.30;;;;;;;21.46;88.21;100339.00;5112874;28;20036;-68
2022/10/16 15:31:08;;;;;;;2.95;1.98;;;;;;;21.41;88.78;100334.28;5112239;28;20369;-68
2022/10/16 15:33:34;;;;;;;4.63;2.58;;;;;;;21.37;88.48;100325.81;5112606;28;20028;-68
2022/10/16 15:36:01;;;;;;;2.28;1.83;;;;;;;21.35;88.57;100321.72;5112605;28;20131;-68
2022/10/16 15:38:28;;;;;;;3.47;2.35;;;;;;;21.30;89.88;100321.59;5111241;28;20042;-68
2022/10/16 15:40:54;;;;;;;4.63;1.80;;;;;;;21.25;90.77;100324.19;5111920;28;20036;-68
2022/10/16 15:43:20;;;;;;;3.47;1.40;;;;;;;21.19;91.86;100326.00;5112303;27;20089;-68
2022/10/16 15:46:01;;;;;;;2.22;1.33;;;;;;;21.09;93.73;100326.59;5112219;28;20035;-69
2022/10/16 15:48:26;;;;;;;2.47;1.55;;;;;;;21.01;95.44;100331.59;5112337;28;20042;-68
2022/10/16 15:50:52;;;;;;;2.00;1.40;;;;;;;20.94;96.05;100328.19;5111900;28;20023;-69
2022/10/16 15:53:17;;;;;;;3.63;1.70;;;;;;;20.82;96.58;100329.03;5112154;28;20106;-68
2022/10/16 15:55:42;;;;;;;1.77;1.50;;;;;;;20.79;97.30;100339.50;5112150;28;20042;-68
2022/10/16 15:58:08;;;;;;;3.63;1.55;;;;;;;20.74;98.33;100342.13;5112276;28;20108;-68
2022/10/16 16:00:34;;;;;;;1.95;1.40;;;;;;;20.68;100.00;100346.59;5111919;28;20035;-68
2022/10/16 16:02:59;;;;;;;2.00;1.15;;;;;;;20.63;100.00;100349.19;5112267;28;20557;-67